sensor_id;sensor_type;location;lat;lon;timestamp;temperature;humidity
32187;DHT22;18686;53.084;8.872;2023-03-01T00:01:35;-1.50;99.90
32187;DHT22;18686;53.084;8.872;2023-03-01T00:04:03;-1.60;99.90
32187;DHT22;18686;53.084;8.872;2023-03-01T00:06:51;-1.60;99.90
32187;DHT22;18686;53.084;8.872;2023-03-01T00:09:19;-1.60;99.90
32187;DHT22;18686;53.084;8.872;2023-03-01T00:11:48;-1.60;99.90
32187;DHT22;18686;53.084;8.872;2023-03-01T00:14:17;-1.60;99.90
32187;DHT22;18686;53.084;8.872;2023-03-01T00:16:45;-1.60;99.90
32187;DHT22;18686;53.084;8.872;2023-03-01T00:19:16;-1.60;99.90
32187;DHT22;18686;53.084;8.872;2023-03-01T00:21:45;-1.60;99.90
32187;DHT22;18686;53.084;8.872;2023-03-01T00:24:15;-1.60;99.90
32187;DHT22;18686;53.084;8.872;2023-03-01T00:26:43;-1.60;99.90
32187;DHT22;18686;53.084;8.872;2023-03-01T00:29:13;-1.60;99.90
32187;DHT22;18686;53.084;8.872;2023-03-01T00:31:41;-1.60;99.90
32187;DHT22;18686;53.084;8.872;2023-03-01T00:34:09;-1.70;99.90
32187;DHT22;18686;53.084;8.872;2023-03-01T00:36:37;-1.70;99.90
32187;DHT22;18686;53.084;8.872;2023-03-01T00:39:10;-1.70;99.90
32187;DHT22;18686;53.084;8.872;2023-03-01T00:41:41;-1.70;99.90
32187;DHT22;18686;53.084;8.872;2023-03-01T00:44:10;-1.70;99.90
32187;DHT22;18686;53.084;8.872;2023-03-01T00:46:38;-1.80;99.90
32187;DHT22;18686;53.084;8.872;2023-03-01T00:49:07;-1.80;99.90
32187;DHT22;18686;53.084;8.872;2023-03-01T00:51:35;-1.80;99.90
32187;DHT22;18686;53.084;8.872;2023-03-01T00:54:04;-1.80;99.90
32187;DHT22;18686;53.084;8.872;2023-03-01T00:56:32;-1.80;99.90
32187;DHT22;18686;53.084;8.872;2023-03-01T00:59:02;-1.80;99.90
32187;DHT22;18686;53.084;8.872;2023-03-01T01:01:30;-1.90;99.90
32187;DHT22;18686;53.084;8.872;2023-03-01T01:04:01;-1.80;99.90
32187;DHT22;18686;53.084;8.872;2023-03-01T01:06:32;-1.90;99.90
32187;DHT22;18686;53.084;8.872;2023-03-01T01:09:02;-1.90;99.90
32187;DHT22;18686;53.084;8.872;2023-03-01T01:11:31;-1.90;99.90
32187;DHT22;18686;53.084;8.872;2023-03-01T01:13:59;-1.90;99.90
32187;DHT22;18686;53.084;8.872;2023-03-01T01:16:30;-1.90;99.90
32187;DHT22;18686;53.084;8.872;2023-03-01T01:18:59;-1.90;99.90
32187;DHT22;18686;53.084;8.872;2023-03-01T01:21:27;-2.00;99.90
32187;DHT22;18686;53.084;8.872;2023-03-01T01:23:56;-2.00;99.90
32187;DHT22;18686;53.084;8.872;2023-03-01T01:26:26;-2.00;99.90
32187;DHT22;18686;53.084;8.872;2023-03-01T01:28:55;-2.00;99.90
32187;DHT22;18686;53.084;8.872;2023-03-01T01:31:24;-2.00;99.90
32187;DHT22;18686;53.084;8.872;2023-03-01T01:33:55;-2.10;99.90
32187;DHT22;18686;53.084;8.872;2023-03-01T01:36:23;-2.10;99.90
32187;DHT22;18686;53.084;8.872;2023-03-01T01:38:51;-2.10;99.90
32187;DHT22;18686;53.084;8.872;2023-03-01T01:41:20;-2.10;99.90
32187;DHT22;18686;53.084;8.872;2023-03-01T01:44:11;-2.20;99.90
32187;DHT22;18686;53.084;8.872;2023-03-01T01:46:41;-2.20;99.90
32187;DHT22;18686;53.084;8.872;2023-03-01T01:49:22;-2.20;99.90
32187;DHT22;18686;53.084;8.872;2023-03-01T01:51:57;-2.20;99.90
32187;DHT22;18686;53.084;8.872;2023-03-01T01:54:30;-2.20;99.90
32187;DHT22;18686;53.084;8.872;2023-03-01T01:57:01;-2.20;99.90
32187;DHT22;18686;53.084;8.872;2023-03-01T01:59:32;-2.30;99.90
32187;DHT22;18686;53.084;8.872;2023-03-01T02:02:03;-2.20;99.90
32187;DHT22;18686;53.084;8.872;2023-03-01T02:04:33;-2.20;99.90
32187;DHT22;18686;53.084;8.872;2023-03-01T02:07:05;-2.30;99.90
32187;DHT22;18686;53.084;8.872;2023-03-01T02:09:34;-2.30;99.90
32187;DHT22;18686;53.084;8.872;2023-03-01T02:12:04;-2.30;99.90
32187;DHT22;18686;53.084;8.872;2023-03-01T02:14:33;-2.30;99.90
32187;DHT22;18686;53.084;8.872;2023-03-01T02:17:03;-2.30;99.90
32187;DHT22;18686;53.084;8.872;2023-03-01T02:19:46;-2.30;99.90
32187;DHT22;18686;53.084;8.872;2023-03-01T02:22:22;-2.20;99.90
32187;DHT22;18686;53.084;8.872;2023-03-01T02:25:03;-2.20;99.90
32187;DHT22;18686;53.084;8.872;2023-03-01T02:27:38;-2.20;99.90
32187;DHT22;18686;53.084;8.872;2023-03-01T02:30:11;-2.30;99.90
32187;DHT22;18686;53.084;8.872;2023-03-01T02:32:40;-2.30;99.90
32187;DHT22;18686;53.084;8.872;2023-03-01T02:35:11;-2.30;99.90
32187;DHT22;18686;53.084;8.872;2023-03-01T02:37:41;-2.30;99.90
32187;DHT22;18686;53.084;8.872;2023-03-01T02:40:13;-2.30;99.90
32187;DHT22;18686;53.084;8.872;2023-03-01T02:42:48;-2.30;99.90
32187;DHT22;18686;53.084;8.872;2023-03-01T02:45:19;-2.30;99.90
32187;DHT22;18686;53.084;8.872;2023-03-01T02:47:47;-2.40;99.90
32187;DHT22;18686;53.084;8.872;2023-03-01T02:50:26;-2.40;99.90
32187;DHT22;18686;53.084;8.872;2023-03-01T02:53:08;-2.40;99.90
32187;DHT22;18686;53.084;8.872;2023-03-01T02:55:38;-2.40;99.90
32187;DHT22;18686;53.084;8.872;2023-03-01T02:58:06;-2.40;99.90
32187;DHT22;18686;53.084;8.872;2023-03-01T03:00:39;-2.40;99.90
32187;DHT22;18686;53.084;8.872;2023-03-01T03:03:16;-2.40;99.90
32187;DHT22;18686;53.084;8.872;2023-03-01T03:05:44;-2.40;99.90
32187;DHT22;18686;53.084;8.872;2023-03-01T03:08:12;-2.40;99.90
32187;DHT22;18686;53.084;8.872;2023-03-01T03:10:43;-2.40;99.90
32187;DHT22;18686;53.084;8.872;2023-03-01T03:13:13;-2.40;99.90
32187;DHT22;18686;53.084;8.872;2023-03-01T03:15:44;-2.40;99.90
32187;DHT22;18686;53.084;8.872;2023-03-01T03:18:14;-2.40;99.90
32187;DHT22;18686;53.084;8.872;2023-03-01T03:20:44;-2.30;99.90
32187;DHT22;18686;53.084;8.872;2023-03-01T03:23:12;-2.30;99.90
32187;DHT22;18686;53.084;8.872;2023-03-01T03:25:40;-2.30;99.90
32187;DHT22;18686;53.084;8.872;2023-03-01T03:28:09;-2.20;99.90
32187;DHT22;18686;53.084;8.872;2023-03-01T03:30:39;-2.20;99.90
32187;DHT22;18686;53.084;8.872;2023-03-01T03:33:10;-2.10;99.90
32187;DHT22;18686;53.084;8.872;2023-03-01T03:35:41;-2.10;99.90
32187;DHT22;18686;53.084;8.872;2023-03-01T03:38:12;-2.10;99.90
32187;DHT22;18686;53.084;8.872;2023-03-01T03:40:45;-2.00;99.90
32187;DHT22;18686;53.084;8.872;2023-03-01T03:43:16;-2.00;99.90
32187;DHT22;18686;53.084;8.872;2023-03-01T03:45:44;-2.00;99.90
32187;DHT22;18686;53.084;8.872;2023-03-01T03:48:15;-2.10;99.90
32187;DHT22;18686;53.084;8.872;2023-03-01T03:50:48;-2.10;99.90
32187;DHT22;18686;53.084;8.872;2023-03-01T03:53:17;-2.10;99.90
32187;DHT22;18686;53.084;8.872;2023-03-01T03:55:45;-2.20;99.90
32187;DHT22;18686;53.084;8.872;2023-03-01T03:58:16;-2.20;99.90
32187;DHT22;18686;53.084;8.872;2023-03-01T04:00:48;-2.20;99.90
32187;DHT22;18686;53.084;8.872;2023-03-01T04:03:19;-2.30;99.90
32187;DHT22;18686;53.084;8.872;2023-03-01T04:05:48;-2.30;99.90
32187;DHT22;18686;53.084;8.872;2023-03-01T04:08:18;-2.30;99.90
32187;DHT22;18686;53.084;8.872;2023-03-01T04:10:49;-2.40;99.90
32187;DHT22;18686;53.084;8.872;2023-03-01T04:13:19;-2.40;99.90
32187;DHT22;18686;53.084;8.872;2023-03-01T04:15:48;-2.40;99.90
32187;DHT22;18686;53.084;8.872;2023-03-01T04:18:20;-2.40;99.90
32187;DHT22;18686;53.084;8.872;2023-03-01T04:20:49;-2.40;99.90
32187;DHT22;18686;53.084;8.872;2023-03-01T04:23:20;-2.40;99.90
32187;DHT22;18686;53.084;8.872;2023-03-01T04:25:49;-2.40;99.90
32187;DHT22;18686;53.084;8.872;2023-03-01T04:28:21;-2.40;99.90
32187;DHT22;18686;53.084;8.872;2023-03-01T04:30:51;-2.50;99.90
32187;DHT22;18686;53.084;8.872;2023-03-01T04:33:21;-2.50;99.90
32187;DHT22;18686;53.084;8.872;2023-03-01T04:35:50;-2.50;99.90
32187;DHT22;18686;53.084;8.872;2023-03-01T04:38:19;-2.50;99.90
32187;DHT22;18686;53.084;8.872;2023-03-01T04:40:48;-2.50;99.90
32187;DHT22;18686;53.084;8.872;2023-03-01T04:43:16;-2.50;99.90
32187;DHT22;18686;53.084;8.872;2023-03-01T04:45:44;-2.50;99.90
32187;DHT22;18686;53.084;8.872;2023-03-01T04:48:13;-2.50;99.90
32187;DHT22;18686;53.084;8.872;2023-03-01T04:50:42;-2.50;99.90
32187;DHT22;18686;53.084;8.872;2023-03-01T04:53:11;-2.50;99.90
32187;DHT22;18686;53.084;8.872;2023-03-01T04:55:39;-2.50;99.90
32187;DHT22;18686;53.084;8.872;2023-03-01T04:58:07;-2.50;99.90
32187;DHT22;18686;53.084;8.872;2023-03-01T05:00:35;-2.60;99.90
32187;DHT22;18686;53.084;8.872;2023-03-01T05:03:04;-2.60;99.90
32187;DHT22;18686;53.084;8.872;2023-03-01T05:05:33;-2.60;99.90
32187;DHT22;18686;53.084;8.872;2023-03-01T05:08:06;-2.60;99.90
32187;DHT22;18686;53.084;8.872;2023-03-01T05:10:36;-2.60;99.90
32187;DHT22;18686;53.084;8.872;2023-03-01T05:13:05;-2.60;99.90
32187;DHT22;18686;53.084;8.872;2023-03-01T05:15:34;-2.60;99.90
32187;DHT22;18686;53.084;8.872;2023-03-01T05:18:03;-2.60;99.90
32187;DHT22;18686;53.084;8.872;2023-03-01T05:20:33;-2.60;99.90
32187;DHT22;18686;53.084;8.872;2023-03-01T05:23:05;-2.60;99.90
32187;DHT22;18686;53.084;8.872;2023-03-01T05:25:34;-2.60;99.90
32187;DHT22;18686;53.084;8.872;2023-03-01T05:28:11;-2.60;99.90
32187;DHT22;18686;53.084;8.872;2023-03-01T05:30:40;-2.60;99.90
32187;DHT22;18686;53.084;8.872;2023-03-01T05:33:08;-2.60;99.90
32187;DHT22;18686;53.084;8.872;2023-03-01T05:35:41;-2.50;99.90
32187;DHT22;18686;53.084;8.872;2023-03-01T05:38:11;-2.50;99.90
32187;DHT22;18686;53.084;8.872;2023-03-01T05:40:40;-2.50;99.90
32187;DHT22;18686;53.084;8.872;2023-03-01T05:43:09;-2.50;99.90
32187;DHT22;18686;53.084;8.872;2023-03-01T05:45:39;-2.50;99.90
32187;DHT22;18686;53.084;8.872;2023-03-01T05:48:09;-2.50;99.90
32187;DHT22;18686;53.084;8.872;2023-03-01T05:50:40;-2.50;99.90
32187;DHT22;18686;53.084;8.872;2023-03-01T05:53:12;-2.40;99.90
32187;DHT22;18686;53.084;8.872;2023-03-01T05:55:41;-2.50;99.90
32187;DHT22;18686;53.084;8.872;2023-03-01T05:58:11;-2.40;99.90
32187;DHT22;18686;53.084;8.872;2023-03-01T06:00:41;-2.40;99.90
32187;DHT22;18686;53.084;8.872;2023-03-01T06:03:11;-2.40;99.90
32187;DHT22;18686;53.084;8.872;2023-03-01T06:05:39;-2.40;99.90
32187;DHT22;18686;53.084;8.872;2023-03-01T06:08:11;-2.40;99.90
32187;DHT22;18686;53.084;8.872;2023-03-01T06:10:41;-2.40;99.90
32187;DHT22;18686;53.084;8.872;2023-03-01T06:13:09;-2.30;99.90
32187;DHT22;18686;53.084;8.872;2023-03-01T06:15:37;-2.30;99.90
32187;DHT22;18686;53.084;8.872;2023-03-01T06:18:05;-2.30;99.90
32187;DHT22;18686;53.084;8.872;2023-03-01T06:20:34;-2.20;99.90
32187;DHT22;18686;53.084;8.872;2023-03-01T06:23:02;-2.10;99.90
32187;DHT22;18686;53.084;8.872;2023-03-01T06:25:32;-2.00;99.90
32187;DHT22;18686;53.084;8.872;2023-03-01T06:28:00;-1.80;99.90
32187;DHT22;18686;53.084;8.872;2023-03-01T06:30:28;-1.70;99.90
32187;DHT22;18686;53.084;8.872;2023-03-01T06:32:56;-1.60;99.90
32187;DHT22;18686;53.084;8.872;2023-03-01T06:35:28;-1.40;99.90
32187;DHT22;18686;53.084;8.872;2023-03-01T06:37:58;-1.30;99.90
32187;DHT22;18686;53.084;8.872;2023-03-01T06:40:27;-1.30;99.90
32187;DHT22;18686;53.084;8.872;2023-03-01T06:42:57;-1.20;99.90
32187;DHT22;18686;53.084;8.872;2023-03-01T06:45:26;-1.10;99.90
32187;DHT22;18686;53.084;8.872;2023-03-01T06:48:01;-1.00;99.90
32187;DHT22;18686;53.084;8.872;2023-03-01T06:50:30;-0.80;99.90
32187;DHT22;18686;53.084;8.872;2023-03-01T06:52:59;-0.70;99.90
32187;DHT22;18686;53.084;8.872;2023-03-01T06:55:27;-0.50;99.90
32187;DHT22;18686;53.084;8.872;2023-03-01T06:57:58;-0.40;99.90
32187;DHT22;18686;53.084;8.872;2023-03-01T07:00:27;-0.20;99.90
32187;DHT22;18686;53.084;8.872;2023-03-01T07:02:59;0.00;99.90
32187;DHT22;18686;53.084;8.872;2023-03-01T07:05:29;0.10;99.90
32187;DHT22;18686;53.084;8.872;2023-03-01T07:07:57;0.30;99.90
32187;DHT22;18686;53.084;8.872;2023-03-01T07:10:25;0.40;99.90
32187;DHT22;18686;53.084;8.872;2023-03-01T07:12:58;0.60;99.90
32187;DHT22;18686;53.084;8.872;2023-03-01T07:15:28;0.80;99.90
32187;DHT22;18686;53.084;8.872;2023-03-01T07:17:57;1.00;99.90
32187;DHT22;18686;53.084;8.872;2023-03-01T07:20:25;1.20;99.90
32187;DHT22;18686;53.084;8.872;2023-03-01T07:22:54;1.50;99.90
32187;DHT22;18686;53.084;8.872;2023-03-01T07:25:23;1.80;99.90
32187;DHT22;18686;53.084;8.872;2023-03-01T07:27:52;2.10;99.90
32187;DHT22;18686;53.084;8.872;2023-03-01T07:30:22;2.50;99.90
32187;DHT22;18686;53.084;8.872;2023-03-01T07:32:53;2.80;99.90
32187;DHT22;18686;53.084;8.872;2023-03-01T07:35:22;3.00;99.90
32187;DHT22;18686;53.084;8.872;2023-03-01T07:37:51;3.10;99.90
32187;DHT22;18686;53.084;8.872;2023-03-01T07:40:19;3.20;99.90
32187;DHT22;18686;53.084;8.872;2023-03-01T07:42:47;3.30;99.90
32187;DHT22;18686;53.084;8.872;2023-03-01T07:45:15;3.30;99.90
32187;DHT22;18686;53.084;8.872;2023-03-01T07:47:45;3.50;99.90
32187;DHT22;18686;53.084;8.872;2023-03-01T07:50:13;3.60;99.90
32187;DHT22;18686;53.084;8.872;2023-03-01T07:52:44;3.80;99.90
32187;DHT22;18686;53.084;8.872;2023-03-01T07:55:13;3.90;99.90
32187;DHT22;18686;53.084;8.872;2023-03-01T07:57:41;4.10;99.90
32187;DHT22;18686;53.084;8.872;2023-03-01T08:00:11;4.30;99.90
32187;DHT22;18686;53.084;8.872;2023-03-01T08:02:40;4.40;99.90
32187;DHT22;18686;53.084;8.872;2023-03-01T08:05:10;4.50;99.90
32187;DHT22;18686;53.084;8.872;2023-03-01T08:07:38;4.70;99.90
32187;DHT22;18686;53.084;8.872;2023-03-01T08:10:08;4.90;99.90
32187;DHT22;18686;53.084;8.872;2023-03-01T08:12:36;5.20;99.90
32187;DHT22;18686;53.084;8.872;2023-03-01T08:15:09;5.60;99.50
32187;DHT22;18686;53.084;8.872;2023-03-01T08:17:38;6.20;98.30
32187;DHT22;18686;53.084;8.872;2023-03-01T08:20:07;6.80;97.10
32187;DHT22;18686;53.084;8.872;2023-03-01T08:22:40;7.60;96.10
32187;DHT22;18686;53.084;8.872;2023-03-01T08:25:09;8.40;93.60
32187;DHT22;18686;53.084;8.872;2023-03-01T08:27:37;9.00;90.80
32187;DHT22;18686;53.084;8.872;2023-03-01T08:30:07;9.30;85.50
32187;DHT22;18686;53.084;8.872;2023-03-01T08:32:37;9.70;82.80
32187;DHT22;18686;53.084;8.872;2023-03-01T08:35:06;10.10;80.10
32187;DHT22;18686;53.084;8.872;2023-03-01T08:37:34;10.50;75.00
32187;DHT22;18686;53.084;8.872;2023-03-01T08:40:05;11.00;70.90
32187;DHT22;18686;53.084;8.872;2023-03-01T08:42:37;11.40;66.80
32187;DHT22;18686;53.084;8.872;2023-03-01T08:45:05;11.70;65.00
32187;DHT22;18686;53.084;8.872;2023-03-01T08:47:34;11.80;61.90
32187;DHT22;18686;53.084;8.872;2023-03-01T08:50:03;11.80;59.10
32187;DHT22;18686;53.084;8.872;2023-03-01T08:52:32;11.90;57.90
32187;DHT22;18686;53.084;8.872;2023-03-01T08:55:00;12.00;56.60
32187;DHT22;18686;53.084;8.872;2023-03-01T09:00:33;12.70;54.90
32187;DHT22;18686;53.084;8.872;2023-03-01T09:03:02;13.60;52.30
32187;DHT22;18686;53.084;8.872;2023-03-01T09:05:31;14.50;50.70
32187;DHT22;18686;53.084;8.872;2023-03-01T09:08:00;15.70;47.20
32187;DHT22;18686;53.084;8.872;2023-03-01T09:10:28;17.10;44.00
32187;DHT22;18686;53.084;8.872;2023-03-01T09:12:56;18.60;40.20
32187;DHT22;18686;53.084;8.872;2023-03-01T09:15:25;19.80;38.40
32187;DHT22;18686;53.084;8.872;2023-03-01T09:17:55;20.60;35.70
32187;DHT22;18686;53.084;8.872;2023-03-01T09:20:23;21.20;34.80
32187;DHT22;18686;53.084;8.872;2023-03-01T09:22:51;21.90;33.50
32187;DHT22;18686;53.084;8.872;2023-03-01T09:25:19;22.70;32.50
32187;DHT22;18686;53.084;8.872;2023-03-01T09:27:47;23.30;31.00
32187;DHT22;18686;53.084;8.872;2023-03-01T09:30:16;24.00;30.00
32187;DHT22;18686;53.084;8.872;2023-03-01T09:32:44;24.70;29.30
32187;DHT22;18686;53.084;8.872;2023-03-01T09:35:14;25.40;29.10
32187;DHT22;18686;53.084;8.872;2023-03-01T09:37:42;25.90;27.90
32187;DHT22;18686;53.084;8.872;2023-03-01T09:40:15;25.80;27.90
32187;DHT22;18686;53.084;8.872;2023-03-01T09:42:52;25.90;27.20
32187;DHT22;18686;53.084;8.872;2023-03-01T09:45:27;26.30;27.00
32187;DHT22;18686;53.084;8.872;2023-03-01T09:47:57;26.40;26.50
32187;DHT22;18686;53.084;8.872;2023-03-01T09:50:30;26.40;26.00
32187;DHT22;18686;53.084;8.872;2023-03-01T09:53:01;27.10;25.80
32187;DHT22;18686;53.084;8.872;2023-03-01T09:55:33;28.50;25.80
32187;DHT22;18686;53.084;8.872;2023-03-01T09:58:32;29.90;25.20
32187;DHT22;18686;53.084;8.872;2023-03-01T10:01:19;31.00;24.30
32187;DHT22;18686;53.084;8.872;2023-03-01T10:04:02;32.00;23.90
32187;DHT22;18686;53.084;8.872;2023-03-01T10:06:34;33.20;23.20
32187;DHT22;18686;53.084;8.872;2023-03-01T10:09:04;33.90;22.60
32187;DHT22;18686;53.084;8.872;2023-03-01T10:11:39;34.80;22.30
32187;DHT22;18686;53.084;8.872;2023-03-01T10:14:18;35.40;22.10
32187;DHT22;18686;53.084;8.872;2023-03-01T10:16:55;36.10;21.50
32187;DHT22;18686;53.084;8.872;2023-03-01T10:19:31;36.30;21.40
32187;DHT22;18686;53.084;8.872;2023-03-01T10:22:05;36.60;21.30
32187;DHT22;18686;53.084;8.872;2023-03-01T10:24:37;36.90;21.20
32187;DHT22;18686;53.084;8.872;2023-03-01T10:27:09;36.80;21.20
32187;DHT22;18686;53.084;8.872;2023-03-01T10:29:46;36.90;21.70
32187;DHT22;18686;53.084;8.872;2023-03-01T10:32:17;37.20;21.70
32187;DHT22;18686;53.084;8.872;2023-03-01T10:34:46;38.10;21.30
32187;DHT22;18686;53.084;8.872;2023-03-01T10:37:18;38.30;21.00
32187;DHT22;18686;53.084;8.872;2023-03-01T10:39:55;38.50;21.20
32187;DHT22;18686;53.084;8.872;2023-03-01T10:42:27;38.80;21.00
32187;DHT22;18686;53.084;8.872;2023-03-01T10:44:57;39.10;21.10
32187;DHT22;18686;53.084;8.872;2023-03-01T10:47:26;39.00;21.10
32187;DHT22;18686;53.084;8.872;2023-03-01T10:50:00;38.80;20.90
32187;DHT22;18686;53.084;8.872;2023-03-01T10:52:35;38.80;20.90
32187;DHT22;18686;53.084;8.872;2023-03-01T10:55:23;39.20;21.00
32187;DHT22;18686;53.084;8.872;2023-03-01T10:58:07;39.80;20.90
32187;DHT22;18686;53.084;8.872;2023-03-01T11:00:46;39.80;20.80
32187;DHT22;18686;53.084;8.872;2023-03-01T11:03:19;40.00;21.00
32187;DHT22;18686;53.084;8.872;2023-03-01T11:06:00;40.60;20.90
32187;DHT22;18686;53.084;8.872;2023-03-01T11:08:33;40.20;20.80
32187;DHT22;18686;53.084;8.872;2023-03-01T11:11:09;38.90;21.10
32187;DHT22;18686;53.084;8.872;2023-03-01T11:13:50;37.70;21.50
32187;DHT22;18686;53.084;8.872;2023-03-01T11:16:28;37.10;21.60
32187;DHT22;18686;53.084;8.872;2023-03-01T11:19:14;36.80;21.60
32187;DHT22;18686;53.084;8.872;2023-03-01T11:21:51;35.40;22.10
32187;DHT22;18686;53.084;8.872;2023-03-01T11:24:29;34.10;22.50
32187;DHT22;18686;53.084;8.872;2023-03-01T11:27:01;32.60;23.10
32187;DHT22;18686;53.084;8.872;2023-03-01T11:29:34;31.60;23.40
32187;DHT22;18686;53.084;8.872;2023-03-01T11:32:15;31.40;23.80
32187;DHT22;18686;53.084;8.872;2023-03-01T11:34:47;31.30;23.80
32187;DHT22;18686;53.084;8.872;2023-03-01T11:37:22;30.70;24.50
32187;DHT22;18686;53.084;8.872;2023-03-01T11:39:59;30.30;24.30
32187;DHT22;18686;53.084;8.872;2023-03-01T11:42:42;30.00;24.50
32187;DHT22;18686;53.084;8.872;2023-03-01T11:45:12;29.70;24.60
32187;DHT22;18686;53.084;8.872;2023-03-01T11:47:59;29.20;24.80
32187;DHT22;18686;53.084;8.872;2023-03-01T11:50:35;29.10;25.20
32187;DHT22;18686;53.084;8.872;2023-03-01T11:53:37;29.60;25.20
32187;DHT22;18686;53.084;8.872;2023-03-01T11:56:23;30.00;25.10
32187;DHT22;18686;53.084;8.872;2023-03-01T11:59:20;30.20;25.00
32187;DHT22;18686;53.084;8.872;2023-03-01T12:02:15;30.50;24.70
32187;DHT22;18686;53.084;8.872;2023-03-01T12:07:51;30.30;24.30
32187;DHT22;18686;53.084;8.872;2023-03-01T12:10:25;29.40;25.10
32187;DHT22;18686;53.084;8.872;2023-03-01T12:13:27;29.90;25.20
32187;DHT22;18686;53.084;8.872;2023-03-01T12:16:15;30.50;24.70
32187;DHT22;18686;53.084;8.872;2023-03-01T12:19:37;31.50;24.60
32187;DHT22;18686;53.084;8.872;2023-03-01T12:22:17;32.90;24.30
32187;DHT22;18686;53.084;8.872;2023-03-01T12:25:16;33.80;24.40
32187;DHT22;18686;53.084;8.872;2023-03-01T12:28:04;34.00;23.70
32187;DHT22;18686;53.084;8.872;2023-03-01T12:30:48;33.30;23.80
32187;DHT22;18686;53.084;8.872;2023-03-01T12:33:24;33.40;24.40
32187;DHT22;18686;53.084;8.872;2023-03-01T12:36:13;33.40;23.80
32187;DHT22;18686;53.084;8.872;2023-03-01T12:38:49;32.80;23.70
32187;DHT22;18686;53.084;8.872;2023-03-01T12:41:31;32.90;23.70
32187;DHT22;18686;53.084;8.872;2023-03-01T12:44:22;33.30;23.90
32187;DHT22;18686;53.084;8.872;2023-03-01T12:47:07;34.10;23.50
32187;DHT22;18686;53.084;8.872;2023-03-01T12:49:41;34.70;23.70
32187;DHT22;18686;53.084;8.872;2023-03-01T12:52:14;35.50;23.50
32187;DHT22;18686;53.084;8.872;2023-03-01T12:54:45;36.30;23.00
32187;DHT22;18686;53.084;8.872;2023-03-01T12:57:20;36.60;22.90
32187;DHT22;18686;53.084;8.872;2023-03-01T13:00:02;36.20;22.90
32187;DHT22;18686;53.084;8.872;2023-03-01T13:02:41;36.00;23.20
32187;DHT22;18686;53.084;8.872;2023-03-01T13:05:26;35.60;22.90
32187;DHT22;18686;53.084;8.872;2023-03-01T13:08:03;35.30;22.70
32187;DHT22;18686;53.084;8.872;2023-03-01T13:10:36;34.50;22.90
32187;DHT22;18686;53.084;8.872;2023-03-01T13:13:19;33.20;23.40
32187;DHT22;18686;53.084;8.872;2023-03-01T13:15:48;31.60;24.00
32187;DHT22;18686;53.084;8.872;2023-03-01T13:18:30;31.00;24.60
32187;DHT22;18686;53.084;8.872;2023-03-01T13:21:03;31.20;24.50
32187;DHT22;18686;53.084;8.872;2023-03-01T13:23:35;31.40;24.30
32187;DHT22;18686;53.084;8.872;2023-03-01T13:26:12;31.60;24.30
32187;DHT22;18686;53.084;8.872;2023-03-01T13:28:55;31.80;24.30
32187;DHT22;18686;53.084;8.872;2023-03-01T13:34:47;30.90;24.30
32187;DHT22;18686;53.084;8.872;2023-03-01T13:37:31;30.20;24.70
32187;DHT22;18686;53.084;8.872;2023-03-01T13:40:03;28.70;25.00
32187;DHT22;18686;53.084;8.872;2023-03-01T13:42:39;27.60;25.80
32187;DHT22;18686;53.084;8.872;2023-03-01T13:45:20;27.00;26.40
32187;DHT22;18686;53.084;8.872;2023-03-01T13:47:55;26.90;26.60
32187;DHT22;18686;53.084;8.872;2023-03-01T13:50:29;26.80;26.80
32187;DHT22;18686;53.084;8.872;2023-03-01T13:53:00;26.50;26.90
32187;DHT22;18686;53.084;8.872;2023-03-01T13:55:36;26.40;26.90
32187;DHT22;18686;53.084;8.872;2023-03-01T13:58:16;26.10;26.80
32187;DHT22;18686;53.084;8.872;2023-03-01T14:00:46;25.30;27.10
32187;DHT22;18686;53.084;8.872;2023-03-01T14:03:16;24.20;28.10
32187;DHT22;18686;53.084;8.872;2023-03-01T14:05:59;22.80;29.30
32187;DHT22;18686;53.084;8.872;2023-03-01T14:08:39;21.60;30.20
32187;DHT22;18686;53.084;8.872;2023-03-01T14:11:33;20.50;31.60
32187;DHT22;18686;53.084;8.872;2023-03-01T14:17:43;18.80;35.20
32187;DHT22;18686;53.084;8.872;2023-03-01T14:20:17;18.20;35.50
32187;DHT22;18686;53.084;8.872;2023-03-01T14:22:50;17.80;36.90
32187;DHT22;18686;53.084;8.872;2023-03-01T14:25:23;17.40;37.70
32187;DHT22;18686;53.084;8.872;2023-03-01T14:28:03;17.30;38.40
32187;DHT22;18686;53.084;8.872;2023-03-01T14:30:35;17.10;38.40
32187;DHT22;18686;53.084;8.872;2023-03-01T14:33:06;16.90;38.80
32187;DHT22;18686;53.084;8.872;2023-03-01T14:35:36;16.70;39.40
32187;DHT22;18686;53.084;8.872;2023-03-01T14:38:05;16.50;39.80
32187;DHT22;18686;53.084;8.872;2023-03-01T14:40:35;16.20;39.80
32187;DHT22;18686;53.084;8.872;2023-03-01T14:43:10;15.90;40.00
32187;DHT22;18686;53.084;8.872;2023-03-01T14:45:39;15.70;40.60
32187;DHT22;18686;53.084;8.872;2023-03-01T14:48:07;15.50;41.30
32187;DHT22;18686;53.084;8.872;2023-03-01T14:50:40;15.60;41.50
32187;DHT22;18686;53.084;8.872;2023-03-01T14:53:17;15.60;41.20
32187;DHT22;18686;53.084;8.872;2023-03-01T14:55:48;15.50;41.60
32187;DHT22;18686;53.084;8.872;2023-03-01T14:58:21;15.40;41.70
32187;DHT22;18686;53.084;8.872;2023-03-01T15:00:51;15.00;42.50
32187;DHT22;18686;53.084;8.872;2023-03-01T15:03:26;14.70;43.20
32187;DHT22;18686;53.084;8.872;2023-03-01T15:05:55;14.20;43.80
32187;DHT22;18686;53.084;8.872;2023-03-01T15:08:26;13.80;44.70
32187;DHT22;18686;53.084;8.872;2023-03-01T15:11:02;13.40;45.20
32187;DHT22;18686;53.084;8.872;2023-03-01T15:13:35;13.00;46.80
32187;DHT22;18686;53.084;8.872;2023-03-01T15:16:06;12.70;47.50
32187;DHT22;18686;53.084;8.872;2023-03-01T15:18:36;12.40;47.80
32187;DHT22;18686;53.084;8.872;2023-03-01T15:21:09;12.20;48.40
32187;DHT22;18686;53.084;8.872;2023-03-01T15:23:39;12.00;48.90
32187;DHT22;18686;53.084;8.872;2023-03-01T15:26:22;11.80;49.80
32187;DHT22;18686;53.084;8.872;2023-03-01T15:28:52;11.60;50.60
32187;DHT22;18686;53.084;8.872;2023-03-01T15:31:23;11.30;51.50
32187;DHT22;18686;53.084;8.872;2023-03-01T15:33:52;11.20;53.20
32187;DHT22;18686;53.084;8.872;2023-03-01T15:36:33;11.10;53.60
32187;DHT22;18686;53.084;8.872;2023-03-01T15:39:22;11.00;54.70
32187;DHT22;18686;53.084;8.872;2023-03-01T15:41:54;11.00;54.80
32187;DHT22;18686;53.084;8.872;2023-03-01T15:44:26;10.90;55.30
32187;DHT22;18686;53.084;8.872;2023-03-01T15:47:23;10.80;55.50
32187;DHT22;18686;53.084;8.872;2023-03-01T15:49:53;10.60;55.80
32187;DHT22;18686;53.084;8.872;2023-03-01T15:52:25;10.50;56.60
32187;DHT22;18686;53.084;8.872;2023-03-01T15:55:02;10.40;56.80
32187;DHT22;18686;53.084;8.872;2023-03-01T15:57:31;10.30;56.70
32187;DHT22;18686;53.084;8.872;2023-03-01T15:59:59;10.10;57.30
32187;DHT22;18686;53.084;8.872;2023-03-01T16:02:30;9.90;57.70
32187;DHT22;18686;53.084;8.872;2023-03-01T16:04:58;9.80;58.20
32187;DHT22;18686;53.084;8.872;2023-03-01T16:07:27;9.60;58.70
32187;DHT22;18686;53.084;8.872;2023-03-01T16:09:55;9.50;60.20
32187;DHT22;18686;53.084;8.872;2023-03-01T16:12:24;9.30;60.00
32187;DHT22;18686;53.084;8.872;2023-03-01T16:14:53;9.20;60.40
32187;DHT22;18686;53.084;8.872;2023-03-01T16:17:21;9.00;60.80
32187;DHT22;18686;53.084;8.872;2023-03-01T16:19:49;8.80;61.90